createdAt,value
2022-09-28T00:01:26.141Z,11.05
2022-09-28T00:03:55.959Z,10.52
2022-09-28T00:06:25.374Z,10.90
2022-09-28T00:08:55.284Z,11.60
2022-09-28T00:11:24.320Z,10.73
2022-09-28T00:13:53.383Z,10.25
2022-09-28T00:16:23.363Z,13.10
2022-09-28T00:18:50.606Z,12.25
2022-09-28T00:21:22.492Z,13.52
2022-09-28T00:23:56.710Z,12.60
2022-09-28T00:26:27.551Z,13.88
2022-09-28T00:28:56.168Z,11.25
2022-09-28T00:31:26.942Z,11.10
2022-09-28T00:33:56.390Z,10.52
2022-09-28T00:36:24.868Z,11.23
2022-09-28T00:38:52.378Z,12.85
2022-09-28T00:41:20.106Z,11.75
2022-09-28T00:43:50.043Z,11.32
2022-09-28T00:46:33.784Z,15.60
2022-09-28T00:49:14.794Z,12.88
2022-09-28T00:51:44.924Z,12.93
2022-09-28T00:54:14.948Z,13.75
2022-09-28T00:56:46.316Z,11.50
2022-09-28T00:59:15.528Z,13.82
2022-09-28T01:01:43.057Z,15.30
2022-09-28T01:04:12.786Z,12.23
2022-09-28T01:06:40.718Z,13.60
2022-09-28T01:09:10.511Z,13.75
2022-09-28T01:11:39.335Z,12.48
2022-09-28T01:14:15.134Z,12.52
2022-09-28T01:16:46.490Z,11.43
2022-09-28T01:19:22.908Z,11.48
2022-09-28T01:22:41.899Z,12.60
2022-09-28T01:25:15.932Z,11.32
2022-09-28T01:30:18.838Z,12.48
2022-09-28T01:35:41.014Z,10.55
2022-09-28T01:40:37.500Z,8.73
2022-09-28T01:43:13.757Z,9.63
2022-09-28T01:45:47.759Z,9.30
2022-09-28T01:50:50.871Z,8.32
2022-09-28T01:53:28.771Z,10.15
2022-09-28T01:56:03.286Z,8.85
2022-09-28T01:58:38.196Z,8.63
2022-09-28T02:01:16.454Z,8.75
2022-09-28T02:04:03.243Z,9.35
2022-09-28T02:06:38.686Z,9.52
2022-09-28T02:09:13.931Z,9.93
2022-09-28T02:11:50.730Z,7.75
2022-09-28T02:14:23.547Z,9.63
2022-09-28T02:16:53.480Z,9.05
2022-09-28T02:19:24.370Z,7.55
2022-09-28T02:22:12.782Z,9.95
2022-09-28T02:25:06.245Z,8.73
2022-09-28T02:30:13.174Z,8.05
2022-09-28T02:32:45.031Z,7.90
2022-09-28T02:35:15.950Z,11.90
2022-09-28T02:37:44.366Z,11.00
2022-09-28T02:40:22.433Z,8.35
2022-09-28T02:43:13.533Z,11.63
2022-09-28T02:45:59.370Z,11.07
2022-09-28T02:48:55.775Z,12.05
2022-09-28T02:51:27.532Z,9.07
2022-09-28T02:54:00.777Z,10.07
2022-09-28T02:56:49.466Z,9.45
2022-09-28T02:59:32.847Z,10.52
2022-09-28T03:02:19.191Z,11.27
2022-09-28T03:05:22.139Z,10.63
2022-09-28T03:08:03.245Z,10.05
2022-09-28T03:10:54.844Z,9.00
2022-09-28T03:13:22.292Z,9.43
2022-09-28T03:15:51.885Z,11.35
2022-09-28T03:18:19.065Z,8.80
2022-09-28T03:20:46.210Z,8.05
2022-09-28T03:23:24.292Z,9.10
2022-09-28T03:25:54.619Z,10.98
2022-09-28T03:28:22.121Z,10.00
2022-09-28T03:30:51.407Z,11.13
2022-09-28T03:33:18.978Z,10.95
2022-09-28T03:35:47.831Z,10.18
2022-09-28T03:38:17.777Z,11.65
2022-09-28T03:41:01.620Z,12.75
2022-09-28T03:43:31.761Z,13.10
2022-09-28T03:46:01.485Z,15.10
2022-09-28T03:48:32.696Z,13.63
2022-09-28T03:51:03.181Z,10.52
2022-09-28T03:53:30.903Z,10.95
2022-09-28T03:56:07.497Z,13.18
2022-09-28T03:58:37.216Z,9.73
2022-09-28T04:01:14.178Z,9.77
2022-09-28T04:03:45.006Z,11.10
2022-09-28T04:06:17.417Z,10.50
2022-09-28T04:08:44.627Z,9.93
2022-09-28T04:11:14.568Z,9.60
2022-09-28T04:13:41.871Z,9.82
2022-09-28T04:16:10.883Z,9.80
2022-09-28T04:18:38.167Z,9.02
2022-09-28T04:21:10.937Z,7.93
2022-09-28T04:23:39.936Z,10.40
2022-09-28T04:26:12.993Z,11.02
2022-09-28T04:28:40.196Z,11.63
2022-09-28T04:31:16.634Z,8.95
2022-09-28T04:33:44.444Z,11.10
2022-09-28T04:36:11.680Z,11.13
2022-09-28T04:38:52.934Z,11.25
2022-09-28T04:41:21.411Z,10.18
2022-09-28T04:43:48.477Z,9.73
2022-09-28T04:46:15.686Z,8.20
2022-09-28T04:48:45.330Z,10.27
2022-09-28T04:51:12.422Z,8.10
2022-09-28T04:53:39.553Z,8.25
2022-09-28T04:56:16.836Z,10.30
2022-09-28T04:58:46.867Z,10.75
2022-09-28T05:01:19.700Z,10.10
2022-09-28T05:03:46.902Z,10.70
2022-09-28T05:06:15.135Z,11.50
2022-09-28T05:08:45.378Z,10.60
2022-09-28T05:11:15.207Z,10.25
2022-09-28T05:13:45.700Z,12.13
2022-09-28T05:16:16.961Z,12.05
2022-09-28T05:18:44.076Z,10.43
2022-09-28T05:21:12.818Z,11.45
2022-09-28T05:23:46.995Z,11.23
2022-09-28T05:26:14.642Z,9.10
2022-09-28T05:28:44.479Z,9.52
2022-09-28T05:31:14.294Z,8.80
2022-09-28T05:33:41.458Z,9.70
2022-09-28T05:36:11.648Z,9.75
2022-09-28T05:38:43.523Z,9.68
2022-09-28T05:41:11.220Z,10.70
2022-09-28T05:43:38.555Z,6.97
2022-09-28T05:46:07.813Z,6.22
2022-09-28T05:48:38.193Z,8.82
2022-09-28T05:51:10.463Z,7.22
2022-09-28T05:53:40.394Z,10.70
2022-09-28T05:56:09.915Z,8.20
2022-09-28T05:58:37.001Z,9.95
2022-09-28T06:01:04.614Z,7.18
2022-09-28T06:03:33.922Z,8.45
2022-09-28T06:06:03.766Z,7.75
2022-09-28T06:08:33.597Z,8.73
2022-09-28T06:11:02.181Z,7.97
2022-09-28T06:13:29.413Z,8.35
2022-09-28T06:15:56.804Z,8.00
2022-09-28T06:18:23.886Z,7.60
2022-09-28T06:20:53.265Z,8.43
2022-09-28T06:23:22.829Z,6.20
2022-09-28T06:25:49.984Z,6.00
2022-09-28T06:28:19.721Z,6.05
2022-09-28T06:30:47.295Z,6.90
2022-09-28T06:33:17.143Z,4.90
2022-09-28T06:35:44.418Z,6.20
2022-09-28T06:38:12.123Z,8.68
2022-09-28T06:40:39.234Z,5.03
2022-09-28T06:43:17.493Z,6.25
2022-09-28T06:45:52.083Z,7.03
2022-09-28T06:48:19.779Z,6.22
2022-09-28T06:50:47.126Z,7.10
2022-09-28T06:53:15.237Z,8.75
2022-09-28T06:55:44.727Z,5.90
2022-09-28T06:58:14.337Z,4.93
2022-09-28T07:00:42.091Z,7.38
2022-09-28T07:03:17.097Z,4.82
2022-09-28T07:05:50.458Z,7.63
2022-09-28T07:08:18.192Z,5.32
2022-09-28T07:10:47.736Z,4.75
2022-09-28T07:13:44.898Z,4.97
2022-09-28T07:16:05.084Z,5.40
2022-09-28T07:18:32.563Z,4.68
2022-09-28T07:20:59.655Z,3.28
2022-09-28T07:23:27.243Z,5.10
2022-09-28T07:25:57.688Z,3.38
2022-09-28T07:28:27.393Z,4.57
2022-09-28T07:31:00.566Z,4.85
2022-09-28T07:33:27.692Z,5.20
2022-09-28T07:35:57.960Z,5.70
2022-09-28T07:38:25.424Z,5.60
2022-09-28T07:40:52.789Z,4.90
2022-09-28T07:43:23.073Z,4.47
2022-09-28T07:45:56.094Z,8.18
2022-09-28T07:48:23.581Z,22.13
2022-09-28T07:50:57.076Z,6.43
2022-09-28T07:53:25.510Z,4.57
2022-09-28T07:56:00.468Z,6.18
2022-09-28T07:58:29.548Z,6.63
2022-09-28T08:00:56.628Z,7.75
2022-09-28T08:03:23.741Z,3.47
2022-09-28T08:05:57.218Z,6.07
2022-09-28T08:08:24.463Z,4.60
2022-09-28T08:10:52.669Z,5.07
2022-09-28T08:13:26.721Z,6.82
2022-09-28T08:15:55.403Z,6.35
2022-09-28T08:20:58.266Z,8.88
2022-09-28T08:23:28.382Z,6.57
2022-09-28T08:25:55.537Z,4.13
2022-09-28T08:28:23.996Z,6.32
2022-09-28T08:30:51.668Z,4.82
2022-09-28T08:33:19.727Z,5.03
2022-09-28T08:35:58.398Z,5.47
2022-09-28T08:38:27.124Z,7.05
2022-09-28T08:41:15.678Z,7.20
2022-09-28T08:44:00.930Z,6.47
2022-09-28T08:46:40.935Z,7.30
2022-09-28T08:49:32.571Z,8.57
2022-09-28T08:52:22.858Z,7.60
2022-09-28T08:55:07.594Z,6.40
2022-09-28T08:57:55.254Z,7.68
2022-09-28T09:00:45.801Z,11.30
2022-09-28T09:03:17.606Z,6.68
2022-09-28T09:06:03.357Z,7.47
2022-09-28T09:08:56.751Z,5.38
2022-09-28T09:12:02.981Z,6.88
2022-09-28T09:14:36.164Z,5.80
2022-09-28T09:17:14.267Z,4.78
2022-09-28T09:20:00.921Z,6.28
2022-09-28T09:22:51.845Z,6.40
2022-09-28T09:25:21.381Z,5.47
2022-09-28T09:28:45.888Z,6.28
2022-09-28T09:31:30.177Z,7.10
2022-09-28T09:34:12.130Z,10.10
2022-09-28T09:37:13.537Z,7.25
2022-09-28T09:40:05.056Z,11.80
2022-09-28T09:42:56.174Z,17.52
2022-09-28T09:45:44.688Z,11.38
2022-09-28T09:48:26.818Z,9.38
2022-09-28T09:51:01.194Z,13.23
2022-09-28T09:53:42.259Z,8.82
2022-09-28T09:56:45.118Z,8.18
2022-09-28T09:59:18.446Z,8.95
2022-09-28T10:01:48.074Z,11.70
2022-09-28T10:04:27.937Z,12.43
2022-09-28T10:07:04.265Z,12.75
2022-09-28T10:09:38.572Z,9.02
2022-09-28T10:12:09.586Z,9.20
2022-09-28T10:14:39.729Z,9.70
2022-09-28T10:17:12.146Z,10.82
2022-09-28T10:19:39.410Z,11.98
2022-09-28T10:22:07.457Z,10.38
2022-09-28T10:24:44.399Z,10.15
2022-09-28T10:27:29.532Z,9.23
2022-09-28T10:30:12.832Z,8.30
2022-09-28T10:32:42.832Z,6.30
2022-09-28T10:35:19.287Z,6.22
2022-09-28T10:37:48.743Z,6.22
2022-09-28T10:40:34.712Z,5.53
2022-09-28T10:43:16.068Z,5.82
2022-09-28T10:45:45.882Z,7.57
2022-09-28T10:48:22.664Z,7.90
2022-09-28T10:51:06.488Z,5.95
2022-09-28T10:56:06.828Z,4.82
2022-09-28T10:58:41.470Z,21.95
2022-09-28T11:01:18.452Z,20.85
2022-09-28T11:04:06.519Z,6.43
2022-09-28T11:06:40.851Z,5.90
2022-09-28T11:09:31.219Z,4.70
2022-09-28T11:12:00.168Z,8.43
2022-09-28T11:14:38.398Z,8.93
2022-09-28T11:17:16.664Z,5.97
2022-09-28T11:19:46.362Z,6.78
2022-09-28T11:22:23.446Z,7.80
2022-09-28T11:24:50.902Z,7.45
2022-09-28T11:27:26.656Z,7.03
2022-09-28T11:29:57.978Z,8.90
2022-09-28T11:32:41.126Z,7.88
2022-09-28T11:35:37.112Z,8.02
2022-09-28T11:38:28.842Z,13.07
2022-09-28T11:41:15.342Z,12.07
2022-09-28T11:43:55.032Z,11.05
2022-09-28T11:46:40.798Z,8.82
2022-09-28T11:49:26.352Z,7.47
2022-09-28T11:51:56.796Z,8.02
2022-09-28T11:54:32.709Z,9.65
2022-09-28T11:57:03.742Z,10.07
2022-09-28T11:59:39.687Z,10.95
2022-09-28T12:02:32.283Z,8.85
2022-09-28T12:05:21.748Z,11.55
2022-09-28T12:08:00.311Z,10.45
2022-09-28T12:10:49.955Z,12.13
2022-09-28T12:13:21.665Z,9.07
2022-09-28T12:16:32.761Z,8.75
2022-09-28T12:19:02.448Z,6.97
2022-09-28T12:21:53.341Z,9.10
2022-09-28T12:24:27.986Z,7.88
2022-09-28T12:27:11.521Z,6.90
2022-09-28T12:30:02.625Z,9.30
2022-09-28T12:32:48.065Z,7.88
2022-09-28T12:35:36.407Z,8.25
2022-09-28T12:38:25.680Z,10.05
2022-09-28T12:41:20.427Z,10.85
2022-09-28T12:43:57.910Z,5.13
2022-09-28T12:46:45.913Z,5.53
2022-09-28T12:52:29.083Z,5.07
2022-09-28T12:55:24.667Z,4.75
2022-09-28T12:58:04.298Z,4.20
2022-09-28T13:00:43.758Z,5.72
2022-09-28T13:03:35.002Z,5.10
2022-09-28T13:06:24.530Z,4.78
2022-09-28T13:08:51.506Z,5.45
2022-09-28T13:11:27.827Z,4.93
2022-09-28T13:14:10.351Z,3.53
2022-09-28T13:17:11.600Z,4.63
2022-09-28T13:19:53.340Z,4.90
2022-09-28T13:22:43.554Z,5.20
2022-09-28T13:25:17.800Z,10.25
2022-09-28T13:28:03.508Z,2.78
2022-09-28T13:30:34.581Z,3.97
2022-09-28T13:33:05.546Z,4.13
2022-09-28T13:35:33.188Z,3.20
2022-09-28T13:38:18.466Z,4.40
2022-09-28T13:41:06.995Z,4.75
2022-09-28T13:43:58.230Z,4.55
2022-09-28T13:47:04.162Z,2.97
2022-09-28T13:49:44.035Z,4.75
2022-09-28T13:52:32.893Z,3.30
2022-09-28T13:55:22.773Z,4.95
2022-09-28T13:58:05.284Z,4.25
2022-09-28T14:00:44.831Z,3.90
2022-09-28T14:03:37.063Z,3.58
2022-09-28T14:06:08.718Z,2.50
2022-09-28T14:09:08.460Z,5.07
2022-09-28T14:11:36.043Z,2.97
2022-09-28T14:14:09.641Z,3.05
2022-09-28T14:16:46.341Z,3.95
2022-09-28T14:19:27.804Z,4.32
2022-09-28T14:22:01.291Z,7.25
2022-09-28T14:24:47.734Z,6.25
2022-09-28T14:27:50.031Z,4.53
2022-09-28T14:30:23.938Z,6.25
2022-09-28T14:32:57.568Z,5.47
2022-09-28T14:35:32.713Z,6.38
2022-09-28T14:38:13.320Z,6.13
2022-09-28T14:41:16.190Z,4.25
2022-09-28T14:43:46.644Z,3.95
2022-09-28T14:46:14.113Z,7.32
2022-09-28T14:48:43.420Z,5.70
2022-09-28T14:51:42.519Z,5.63
2022-09-28T14:54:09.869Z,5.65
2022-09-28T14:56:55.751Z,8.40
2022-09-28T14:59:24.595Z,5.22
2022-09-28T15:01:55.955Z,5.32
2022-09-28T15:04:27.279Z,4.32
2022-09-28T15:06:54.479Z,3.90
2022-09-28T15:09:36.233Z,3.88
2022-09-28T15:12:20.278Z,5.32
2022-09-28T15:14:58.579Z,5.53
2022-09-28T15:17:34.623Z,5.88
2022-09-28T15:20:04.170Z,4.10
2022-09-28T15:22:31.799Z,7.90
2022-09-28T15:25:03.259Z,5.10
2022-09-28T15:27:38.269Z,6.05
2022-09-28T15:30:23.382Z,5.53
2022-09-28T15:32:50.662Z,8.93
2022-09-28T15:35:26.925Z,8.82
2022-09-28T15:37:55.591Z,6.10
2022-09-28T15:40:35.184Z,11.35
2022-09-28T15:43:06.343Z,5.60
2022-09-28T15:45:38.441Z,3.72
2022-09-28T15:48:28.685Z,4.20
2022-09-28T15:51:05.069Z,4.40
2022-09-28T15:53:33.256Z,6.93
2022-09-28T15:56:04.340Z,5.45
2022-09-28T15:58:33.971Z,5.07
2022-09-28T16:01:34.662Z,6.82
2022-09-28T16:04:30.448Z,6.70
2022-09-28T16:07:12.645Z,10.07
2022-09-28T16:10:00.391Z,11.57
2022-09-28T16:12:48.351Z,5.47
2022-09-28T16:15:15.478Z,5.45
2022-09-28T16:17:49.042Z,23.48
2022-09-28T16:20:28.764Z,8.48
2022-09-28T16:22:59.074Z,6.13
2022-09-28T16:25:29.459Z,4.20
2022-09-28T16:27:56.767Z,6.03
2022-09-28T16:30:25.865Z,6.88
2022-09-28T16:33:04.541Z,12.63
2022-09-28T16:35:50.176Z,6.85
2022-09-28T16:38:18.736Z,5.90
2022-09-28T16:40:51.959Z,7.18
2022-09-28T16:43:31.994Z,5.28
2022-09-28T16:46:07.001Z,6.32
2022-09-28T16:48:41.349Z,7.78
2022-09-28T16:51:08.910Z,5.22
2022-09-28T16:53:36.430Z,4.75
2022-09-28T16:56:07.218Z,6.70
2022-09-28T16:58:35.114Z,9.52
2022-09-28T17:01:02.397Z,8.43
2022-09-28T17:03:30.388Z,9.43
2022-09-28T17:06:00.164Z,10.20
2022-09-28T17:08:27.508Z,13.27
2022-09-28T17:11:14.901Z,14.45
2022-09-28T17:13:44.359Z,12.93
2022-09-28T17:16:14.316Z,11.57
2022-09-28T17:18:42.114Z,12.55
2022-09-28T17:21:17.618Z,25.00
2022-09-28T17:23:46.761Z,52.20
2022-09-28T17:26:27.001Z,15.75
2022-09-28T17:28:54.328Z,10.30
2022-09-28T17:31:24.542Z,11.23
2022-09-28T17:33:54.357Z,9.75
2022-09-28T17:36:22.319Z,10.77
2022-09-28T17:38:52.569Z,7.13
2022-09-28T17:41:21.184Z,7.35
2022-09-28T17:43:49.366Z,9.00
2022-09-28T17:46:28.351Z,6.65
2022-09-28T17:48:57.520Z,6.28
2022-09-28T17:51:29.003Z,7.85
2022-09-28T17:53:57.510Z,5.72
2022-09-28T17:56:28.572Z,6.53
2022-09-28T17:59:02.103Z,7.47
2022-09-28T18:01:29.384Z,6.38
2022-09-28T18:03:56.409Z,4.32
2022-09-28T18:06:26.257Z,5.57
2022-09-28T18:08:53.601Z,5.13
2022-09-28T18:11:20.804Z,5.82
2022-09-28T18:13:50.824Z,3.85
2022-09-28T18:16:18.355Z,5.18
2022-09-28T18:18:45.907Z,5.32
2022-09-28T18:21:13.619Z,6.95
2022-09-28T18:23:41.027Z,6.60
2022-09-28T18:26:18.078Z,6.60
2022-09-28T18:28:48.031Z,7.72
2022-09-28T18:31:18.269Z,7.90
2022-09-28T18:33:45.596Z,9.70
2022-09-28T18:36:13.142Z,9.50
2022-09-28T18:38:40.266Z,10.10
2022-09-28T18:41:12.795Z,10.93
2022-09-28T18:43:40.572Z,11.90
2022-09-28T18:46:10.509Z,25.40
2022-09-28T18:48:39.836Z,17.05
2022-09-28T18:51:13.386Z,15.15
2022-09-28T18:53:42.919Z,16.92
2022-09-28T18:56:12.644Z,19.67
2022-09-28T18:58:41.191Z,18.88
2022-09-28T19:01:28.850Z,19.98
2022-09-28T19:04:08.427Z,19.17
2022-09-28T19:06:41.892Z,16.92
2022-09-28T19:09:09.550Z,18.55
2022-09-28T19:11:41.448Z,13.93
2022-09-28T19:14:11.671Z,14.90
2022-09-28T19:16:39.840Z,11.90
2022-09-28T19:19:14.478Z,14.40
2022-09-28T19:21:42.428Z,12.02
2022-09-28T19:24:17.154Z,11.18
2022-09-28T19:26:44.889Z,11.30
2022-09-28T19:29:13.034Z,14.65
2022-09-28T19:31:41.387Z,17.10
2022-09-28T19:34:11.795Z,19.20
2022-09-28T19:36:44.038Z,20.20
2022-09-28T19:39:15.034Z,25.50
2022-09-28T19:41:44.923Z,28.80
2022-09-28T19:44:16.609Z,23.13
2022-09-28T19:46:46.608Z,61.17
2022-09-28T19:49:18.628Z,35.50
2022-09-28T19:52:10.954Z,30.63
2022-09-28T19:54:36.533Z,34.38
2022-09-28T19:57:04.699Z,34.33
2022-09-28T19:59:31.849Z,33.55
2022-09-28T20:01:59.427Z,28.48
2022-09-28T20:04:29.208Z,31.73
2022-09-28T20:06:56.323Z,34.00
2022-09-28T20:09:23.715Z,35.40
2022-09-28T20:11:50.857Z,37.20
2022-09-28T20:14:17.970Z,38.72
2022-09-28T20:16:45.683Z,26.38
2022-09-28T20:19:15.595Z,25.80
2022-09-28T20:21:45.261Z,25.85
2022-09-28T20:24:13.106Z,25.80
2022-09-28T20:26:41.990Z,30.65
2022-09-28T20:29:09.351Z,26.67
2022-09-28T20:31:37.537Z,26.10
2022-09-28T20:34:06.076Z,26.85
2022-09-28T20:36:36.944Z,30.30
2022-09-28T20:39:04.424Z,34.28
2022-09-28T20:41:32.949Z,29.90
2022-09-28T20:44:04.794Z,33.30
2022-09-28T20:46:36.208Z,35.28
2022-09-28T20:49:05.948Z,32.80
2022-09-28T20:51:33.405Z,33.83
2022-09-28T20:54:01.157Z,35.58
2022-09-28T20:56:31.138Z,58.15
2022-09-28T20:58:58.459Z,45.30
2022-09-28T21:01:29.548Z,31.83
2022-09-28T21:03:59.475Z,35.45
2022-09-28T21:06:30.037Z,35.40
2022-09-28T21:08:57.811Z,34.08
2022-09-28T21:11:26.311Z,34.25
2022-09-28T21:13:56.160Z,32.55
2022-09-28T21:16:23.152Z,22.35
2022-09-28T21:18:50.262Z,23.90
2022-09-28T21:21:19.785Z,24.10
2022-09-28T21:23:55.035Z,24.30
2022-09-28T21:26:26.844Z,30.80
2022-09-28T21:28:57.210Z,30.33
2022-09-28T21:31:29.911Z,39.03
2022-09-28T21:34:00.171Z,38.20
2022-09-28T21:36:27.511Z,37.33
2022-09-28T21:38:54.698Z,36.65
2022-09-28T21:41:22.110Z,34.55
2022-09-28T21:43:49.473Z,38.97
2022-09-28T21:46:16.805Z,38.92
2022-09-28T21:48:53.973Z,36.35
2022-09-28T21:51:21.588Z,37.92
2022-09-28T21:53:48.819Z,36.78
2022-09-28T21:56:15.876Z,36.03
2022-09-28T21:58:43.219Z,29.63
2022-09-28T22:01:21.948Z,28.23
2022-09-28T22:03:58.096Z,22.50
2022-09-28T22:06:27.346Z,25.00
2022-09-28T22:08:57.851Z,19.63
2022-09-28T22:11:27.360Z,36.47
2022-09-28T22:14:00.222Z,23.65
2022-09-28T22:16:31.486Z,29.23
2022-09-28T22:18:59.484Z,27.95
2022-09-28T22:21:45.681Z,31.70
2022-09-28T22:24:15.563Z,34.38
2022-09-28T22:26:44.829Z,26.27
2022-09-28T22:29:12.301Z,25.27
2022-09-28T22:31:40.726Z,22.92
2022-09-28T22:34:09.149Z,22.45
2022-09-28T22:36:36.617Z,25.05
2022-09-28T22:39:07.808Z,25.48
2022-09-28T22:41:34.998Z,26.75
2022-09-28T22:44:02.514Z,26.83
2022-09-28T22:46:30.609Z,31.08
2022-09-28T22:48:59.180Z,33.55
2022-09-28T22:51:41.019Z,30.80
2022-09-28T22:54:08.665Z,30.13
2022-09-28T22:56:48.271Z,29.73
2022-09-28T22:59:15.680Z,30.13
2022-09-28T23:01:47.764Z,30.55
2022-09-28T23:04:14.898Z,33.17
2022-09-28T23:06:42.424Z,33.33
2022-09-28T23:09:11.790Z,38.13
2022-09-28T23:11:38.874Z,41.38
2022-09-28T23:14:06.255Z,38.22
2022-09-28T23:16:35.809Z,38.22
2022-09-28T23:19:05.377Z,40.38
2022-09-28T23:21:32.858Z,82.40
2022-09-28T23:24:00.877Z,62.83
2022-09-28T23:26:32.465Z,40.30
2022-09-28T23:29:05.290Z,34.50
2022-09-28T23:31:35.181Z,30.92
2022-09-28T23:34:06.461Z,37.40
2022-09-28T23:36:34.318Z,36.20
2022-09-28T23:39:01.380Z,45.42
2022-09-28T23:41:29.002Z,45.05
2022-09-28T23:44:14.594Z,44.67
2022-09-28T23:46:42.009Z,50.60
2022-09-28T23:49:09.039Z,43.25
2022-09-28T23:51:36.167Z,42.08
2022-09-28T23:54:03.632Z,44.65
2022-09-28T23:56:30.963Z,49.30
2022-09-28T23:58:58.068Z,49.45
